Time;durP1;ratioP1;P1;durP2;ratioP2;P2;SDS_P1;SDS_P2;PMS_P1;PMS_P2;Temp;Humidity;BMP_temperature;BMP_pressure;BME280_temperature;BME280_humidity;BME280_pressure;Samples;Min_cycle;Max_cycle;Signal;HPM_P1;HPM_P2
2022/10/06 00:00:21;;;;;;;9.97;2.80;;;;;;;;;;4978887;28;21569;-56
2022/10/06 00:02:47;;;;;;;2.53;2.13;;;;;;;;;;4950849;28;20628;-55
2022/10/06 00:05:13;;;;;;;3.90;2.63;;;;;;;;;;4981604;28;20445;-56
2022/10/06 00:07:39;;;;;;;3.97;2.40;;;;;;;;;;4967825;28;20472;-56
2022/10/06 00:10:06;;;;;;;3.90;2.30;;;;;;;;;;4969658;28;20504;-57
2022/10/06 00:12:39;;;;;;;6.23;2.43;;;;;;;;;;4978854;28;20437;-57
2022/10/06 00:15:05;;;;;;;2.77;2.07;;;;;;;;;;4981811;28;20472;-55
2022/10/06 00:17:31;;;;;;;4.13;2.90;;;;;;;;;;5005866;28;20440;-56
2022/10/06 00:19:57;;;;;;;5.90;3.57;;;;;;;;;;4966792;28;20452;-55
2022/10/06 00:22:23;;;;;;;3.63;2.30;;;;;;;;;;4978191;28;20433;-55
2022/10/06 00:24:49;;;;;;;2.70;2.00;;;;;;;;;;4965908;28;20942;-57
2022/10/06 00:27:15;;;;;;;5.33;2.17;;;;;;;;;;4977664;28;20445;-55
2022/10/06 00:29:41;;;;;;;2.80;2.17;;;;;;;;;;4963381;28;20470;-54
2022/10/06 00:32:08;;;;;;;3.07;1.97;;;;;;;;;;4981480;28;20452;-56
2022/10/06 00:34:38;;;;;;;5.00;2.60;;;;;;;;;;4961403;28;20497;-55
2022/10/06 00:37:04;;;;;;;7.87;2.47;;;;;;;;;;4985620;28;20856;-55
2022/10/06 00:39:29;;;;;;;4.60;2.20;;;;;;;;;;4960805;28;21087;-57
2022/10/06 00:41:55;;;;;;;2.27;2.07;;;;;;;;;;4983801;28;20483;-56
2022/10/06 00:44:21;;;;;;;5.47;2.17;;;;;;;;;;4978106;28;20448;-56
2022/10/06 00:46:48;;;;;;;3.17;2.40;;;;;;;;;;5011972;28;21044;-57
2022/10/06 00:49:16;;;;;;;3.50;2.10;;;;;;;;;;4955841;28;20550;-56
2022/10/06 00:51:46;;;;;;;2.77;2.30;;;;;;;;;;5013341;28;20425;-57
2022/10/06 00:54:12;;;;;;;3.07;2.40;;;;;;;;;;4960407;28;20547;-56
2022/10/06 00:56:39;;;;;;;3.77;2.27;;;;;;;;;;4985770;28;20440;-57
2022/10/06 00:59:08;;;;;;;2.47;1.90;;;;;;;;;;4954961;28;20445;-57
2022/10/06 01:01:34;;;;;;;5.77;2.40;;;;;;;;;;4982176;28;20465;-56
2022/10/06 01:04:02;;;;;;;4.40;2.23;;;;;;;;;;4969042;28;20516;-55
2022/10/06 01:06:28;;;;;;;4.73;2.60;;;;;;;;;;4951779;28;20445;-56
2022/10/06 01:08:54;;;;;;;3.40;2.27;;;;;;;;;;4979174;28;20538;-57
2022/10/06 01:11:20;;;;;;;3.33;2.27;;;;;;;;;;4949918;28;20438;-56
2022/10/06 01:13:46;;;;;;;2.53;2.07;;;;;;;;;;5004805;28;20453;-55
2022/10/06 01:16:16;;;;;;;4.53;2.70;;;;;;;;;;4973034;28;20441;-56
2022/10/06 01:18:42;;;;;;;4.27;2.17;;;;;;;;;;4978007;28;20496;-57
2022/10/06 01:21:31;;;;;;;5.70;2.83;;;;;;;;;;4953490;28;20444;-56
2022/10/06 01:23:57;;;;;;;4.23;2.43;;;;;;;;;;5012958;28;20448;-56
2022/10/06 01:26:23;;;;;;;2.83;2.30;;;;;;;;;;4959915;28;20579;-57
2022/10/06 01:28:49;;;;;;;4.10;2.20;;;;;;;;;;4983103;28;20480;-55
2022/10/06 01:31:15;;;;;;;3.87;2.90;;;;;;;;;;4977856;28;20520;-56
2022/10/06 01:33:41;;;;;;;2.83;2.53;;;;;;;;;;5019223;28;20434;-56
2022/10/06 01:36:07;;;;;;;3.53;2.50;;;;;;;;;;4948441;28;20976;-57
2022/10/06 01:38:33;;;;;;;3.47;2.70;;;;;;;;;;4981909;28;20444;-56
2022/10/06 01:40:59;;;;;;;4.43;2.53;;;;;;;;;;4955506;28;20487;-56
2022/10/06 01:43:25;;;;;;;4.50;2.73;;;;;;;;;;4972881;28;20445;-57
2022/10/06 01:45:54;;;;;;;4.10;2.43;;;;;;;;;;4977183;28;20460;-56
2022/10/06 01:48:20;;;;;;;9.00;4.00;;;;;;;;;;4982068;28;20476;-56
2022/10/06 01:50:46;;;;;;;3.40;2.63;;;;;;;;;;4955033;28;20531;-57
2022/10/06 01:53:12;;;;;;;4.77;3.03;;;;;;;;;;4975518;28;20434;-56
2022/10/06 01:55:38;;;;;;;2.80;2.50;;;;;;;;;;4958936;28;20711;-57
2022/10/06 01:58:04;;;;;;;3.73;2.97;;;;;;;;;;4980049;28;20452;-55
2022/10/06 02:00:30;;;;;;;4.00;2.50;;;;;;;;;;4976800;28;20448;-55
2022/10/06 02:02:56;;;;;;;11.00;2.70;;;;;;;;;;4981537;28;20488;-55
2022/10/06 02:05:22;;;;;;;6.53;3.00;;;;;;;;;;4991496;28;20528;-55
2022/10/06 02:07:48;;;;;;;3.07;2.10;;;;;;;;;;4981917;28;20433;-56
2022/10/06 02:10:14;;;;;;;2.80;2.40;;;;;;;;;;4954729;28;21100;-55
2022/10/06 02:12:41;;;;;;;3.10;2.77;;;;;;;;;;4971780;28;20429;-56
2022/10/06 02:15:09;;;;;;;3.80;2.30;;;;;;;;;;4959619;28;20449;-56
2022/10/06 02:17:36;;;;;;;8.27;5.47;;;;;;;;;;4979016;28;20859;-55
2022/10/06 02:20:03;;;;;;;4.27;2.80;;;;;;;;;;4979537;28;20577;-55
2022/10/06 02:22:30;;;;;;;3.47;2.70;;;;;;;;;;5010378;28;20475;-54
2022/10/06 02:24:56;;;;;;;6.83;2.70;;;;;;;;;;4952686;28;21014;-55
2022/10/06 02:27:22;;;;;;;4.53;3.03;;;;;;;;;;4982176;28;20479;-55
2022/10/06 02:29:48;;;;;;;4.00;2.57;;;;;;;;;;4958114;28;20482;-55
2022/10/06 02:32:14;;;;;;;7.20;3.03;;;;;;;;;;4981349;28;20417;-54
2022/10/06 02:34:40;;;;;;;10.10;2.97;;;;;;;;;;4978287;28;20440;-56
2022/10/06 02:37:06;;;;;;;5.40;3.00;;;;;;;;;;4984371;28;20479;-56
2022/10/06 02:39:47;;;;;;;3.60;2.60;;;;;;;;;;4983562;28;20459;-54
2022/10/06 02:42:13;;;;;;;4.17;3.10;;;;;;;;;;4945451;28;20563;-56
2022/10/06 02:44:39;;;;;;;3.20;2.50;;;;;;;;;;4978063;28;20588;-55
2022/10/06 02:47:05;;;;;;;7.37;3.40;;;;;;;;;;4992679;28;20448;-55
2022/10/06 02:49:31;;;;;;;3.57;2.27;;;;;;;;;;4985696;28;20481;-54
2022/10/06 02:51:57;;;;;;;3.23;2.80;;;;;;;;;;4961529;28;20456;-56
2022/10/06 02:54:23;;;;;;;5.90;3.00;;;;;;;;;;4985089;28;20520;-56
2022/10/06 02:56:49;;;;;;;5.00;2.40;;;;;;;;;;4962019;28;20530;-55
2022/10/06 02:59:14;;;;;;;8.57;4.03;;;;;;;;;;4985902;28;20516;-56
2022/10/06 03:01:40;;;;;;;3.70;2.83;;;;;;;;;;4963046;28;20449;-55
2022/10/06 03:04:06;;;;;;;5.47;2.80;;;;;;;;;;4985109;28;20542;-56
2022/10/06 03:06:32;;;;;;;5.73;3.03;;;;;;;;;;4980471;28;20440;-55
2022/10/06 03:08:59;;;;;;;7.07;3.17;;;;;;;;;;4958173;28;20516;-55
2022/10/06 03:11:26;;;;;;;4.00;3.07;;;;;;;;;;4987691;28;20174;-56
2022/10/06 03:14:06;;;;;;;3.50;2.70;;;;;;;;;;4981013;28;24979;-56
2022/10/06 03:16:33;;;;;;;2.83;2.37;;;;;;;;;;4956082;28;20443;-57
2022/10/06 03:18:59;;;;;;;5.57;4.97;;;;;;;;;;4989074;28;20472;-57
2022/10/06 03:21:25;;;;;;;6.53;3.20;;;;;;;;;;4961345;28;20441;-58
2022/10/06 03:23:52;;;;;;;3.50;3.20;;;;;;;;;;4984642;28;21024;-54
2022/10/06 03:26:19;;;;;;;3.40;2.40;;;;;;;;;;4963598;28;20547;-57
2022/10/06 03:28:45;;;;;;;4.33;2.80;;;;;;;;;;4985313;28;20484;-55
2022/10/06 03:31:11;;;;;;;6.77;2.90;;;;;;;;;;4962549;28;20477;-56
2022/10/06 03:33:37;;;;;;;5.93;4.00;;;;;;;;;;4987184;28;20856;-56
2022/10/06 03:36:06;;;;;;;6.93;3.23;;;;;;;;;;4959390;28;20455;-56
2022/10/06 03:38:32;;;;;;;3.90;2.90;;;;;;;;;;4982631;28;20456;-56
2022/10/06 03:41:24;;;;;;;5.20;2.37;;;;;;;;;;4963622;28;20457;-58
2022/10/06 03:43:50;;;;;;;4.63;3.40;;;;;;;;;;4984235;28;20472;-56
2022/10/06 03:46:20;;;;;;;5.23;3.13;;;;;;;;;;4942722;28;20465;-57
2022/10/06 03:48:47;;;;;;;3.70;2.70;;;;;;;;;;4986636;28;20477;-56
2022/10/06 03:51:19;;;;;;;5.63;2.90;;;;;;;;;;4960684;28;20800;-56
2022/10/06 03:53:46;;;;;;;3.73;2.97;;;;;;;;;;4982680;28;20449;-57
2022/10/06 03:56:15;;;;;;;3.27;2.20;;;;;;;;;;4960220;28;20483;-57
2022/10/06 03:58:42;;;;;;;3.47;3.17;;;;;;;;;;4987179;28;20432;-56
2022/10/06 04:01:12;;;;;;;5.20;3.00;;;;;;;;;;4935836;28;20457;-56
2022/10/06 04:03:39;;;;;;;6.10;2.60;;;;;;;;;;4981406;28;20437;-56
2022/10/06 04:06:05;;;;;;;5.73;3.03;;;;;;;;;;4958059;28;21282;-57
2022/10/06 04:08:32;;;;;;;6.50;2.93;;;;;;;;;;4984641;28;20518;-57
2022/10/06 04:11:04;;;;;;;4.73;2.77;;;;;;;;;;4955103;28;22220;-56
2022/10/06 04:13:30;;;;;;;3.67;3.30;;;;;;;;;;4982102;28;20582;-57
2022/10/06 04:15:59;;;;;;;6.60;2.57;;;;;;;;;;4982381;28;20445;-56
2022/10/06 04:18:26;;;;;;;4.43;3.27;;;;;;;;;;4961809;28;20456;-57
2022/10/06 04:20:59;;;;;;;3.23;2.80;;;;;;;;;;4988406;28;20453;-57
2022/10/06 04:23:25;;;;;;;7.63;3.20;;;;;;;;;;4966513;28;20525;-57
2022/10/06 04:25:57;;;;;;;3.37;3.07;;;;;;;;;;4985143;28;20501;-56
2022/10/06 04:28:23;;;;;;;4.67;2.83;;;;;;;;;;4958534;28;20675;-56
2022/10/06 04:30:57;;;;;;;7.80;2.60;;;;;;;;;;4985816;28;20536;-56
2022/10/06 04:33:23;;;;;;;8.20;3.43;;;;;;;;;;4965250;28;20647;-55
2022/10/06 04:35:57;;;;;;;4.80;3.40;;;;;;;;;;4979278;28;20456;-58
2022/10/06 04:38:23;;;;;;;8.23;3.30;;;;;;;;;;4958793;28;20478;-56
2022/10/06 04:40:49;;;;;;;4.87;2.70;;;;;;;;;;4984715;28;20450;-57
2022/10/06 04:43:15;;;;;;;5.77;3.43;;;;;;;;;;4960861;28;20456;-56
2022/10/06 04:45:40;;;;;;;2.87;2.40;;;;;;;;;;4977806;28;20476;-55
2022/10/06 04:48:06;;;;;;;7.77;3.20;;;;;;;;;;4941421;28;20452;-56
2022/10/06 04:50:32;;;;;;;6.40;2.60;;;;;;;;;;4974624;28;20968;-56
2022/10/06 04:52:58;;;;;;;4.00;2.90;;;;;;;;;;5004221;28;20503;-56
2022/10/06 04:55:24;;;;;;;4.37;3.10;;;;;;;;;;4975321;28;21019;-56
2022/10/06 04:57:50;;;;;;;4.33;2.57;;;;;;;;;;4956922;28;20508;-57
2022/10/06 05:00:24;;;;;;;3.60;2.50;;;;;;;;;;4975874;28;20576;-56
2022/10/06 05:02:50;;;;;;;7.63;3.20;;;;;;;;;;4954285;28;20532;-54
2022/10/06 05:05:16;;;;;;;3.73;3.27;;;;;;;;;;4978722;28;20452;-56
2022/10/06 05:07:45;;;;;;;5.90;3.60;;;;;;;;;;4928162;28;20453;-56
2022/10/06 05:10:11;;;;;;;5.00;3.40;;;;;;;;;;4971969;28;20544;-55
2022/10/06 05:12:37;;;;;;;4.33;3.17;;;;;;;;;;4956720;28;21219;-55
2022/10/06 05:15:03;;;;;;;7.70;3.50;;;;;;;;;;4973519;28;21026;-56
2022/10/06 05:18:02;;;;;;;5.57;3.20;;;;;;;;;;4972687;28;20543;-56
2022/10/06 05:20:28;;;;;;;6.00;3.43;;;;;;;;;;4950020;28;21372;-56
2022/10/06 05:22:54;;;;;;;4.37;3.03;;;;;;;;;;4982651;28;20441;-57
2022/10/06 05:25:20;;;;;;;8.30;3.80;;;;;;;;;;4979445;28;20232;-56
2022/10/06 05:27:46;;;;;;;4.07;3.43;;;;;;;;;;4984075;28;20449;-56
2022/10/06 05:30:12;;;;;;;9.60;3.40;;;;;;;;;;4959345;28;20512;-56
2022/10/06 05:32:38;;;;;;;9.50;3.20;;;;;;;;;;4978957;28;20443;-55
2022/10/06 05:35:04;;;;;;;6.30;3.40;;;;;;;;;;4956788;28;20456;-57
2022/10/06 05:37:30;;;;;;;3.80;2.90;;;;;;;;;;4976314;28;20442;-61
2022/10/06 05:39:56;;;;;;;5.20;2.60;;;;;;;;;;4956498;28;20453;-56
2022/10/06 05:42:22;;;;;;;4.70;2.80;;;;;;;;;;4979005;28;20455;-56
2022/10/06 05:44:48;;;;;;;3.17;2.83;;;;;;;;;;4957344;28;20458;-59
2022/10/06 05:47:14;;;;;;;5.30;2.53;;;;;;;;;;4960668;28;20516;-56
2022/10/06 05:49:40;;;;;;;4.10;3.27;;;;;;;;;;4982459;28;21253;-56
2022/10/06 05:52:06;;;;;;;5.70;3.07;;;;;;;;;;4947936;28;20460;-56
2022/10/06 05:54:32;;;;;;;5.27;3.07;;;;;;;;;;5015087;28;20444;-56
2022/10/06 05:56:58;;;;;;;3.93;3.30;;;;;;;;;;4962924;28;20475;-57
2022/10/06 05:59:24;;;;;;;5.10;3.27;;;;;;;;;;4950540;28;20453;-55
2022/10/06 06:01:51;;;;;;;10.20;3.60;;;;;;;;;;4950366;28;21326;-56
2022/10/06 06:04:16;;;;;;;4.13;2.77;;;;;;;;;;4980752;28;20453;-56
2022/10/06 06:06:43;;;;;;;4.30;3.30;;;;;;;;;;4958681;28;20455;-56
2022/10/06 06:09:10;;;;;;;4.90;3.00;;;;;;;;;;4976173;28;20482;-56
2022/10/06 06:11:37;;;;;;;5.03;3.70;;;;;;;;;;4955961;28;20444;-55
2022/10/06 06:14:07;;;;;;;4.00;3.17;;;;;;;;;;4973316;28;20800;-55
2022/10/06 06:16:34;;;;;;;5.40;2.83;;;;;;;;;;4957916;28;21427;-54
2022/10/06 06:19:00;;;;;;;5.43;2.93;;;;;;;;;;4980833;28;20930;-56
2022/10/06 06:21:38;;;;;;;4.17;3.50;;;;;;;;;;4967910;28;21458;-57
2022/10/06 06:24:04;;;;;;;5.10;2.90;;;;;;;;;;4971828;28;20455;-56
2022/10/06 06:26:31;;;;;;;8.00;3.50;;;;;;;;;;4962560;28;20453;-56
2022/10/06 06:29:05;;;;;;;7.43;3.87;;;;;;;;;;4981232;28;21958;-55
2022/10/06 06:31:35;;;;;;;5.77;2.90;;;;;;;;;;4960010;28;20452;-56
2022/10/06 06:34:03;;;;;;;6.33;3.37;;;;;;;;;;4984927;28;20951;-58
2022/10/06 06:36:34;;;;;;;7.70;3.60;;;;;;;;;;4975776;28;21019;-55
2022/10/06 06:39:00;;;;;;;7.07;3.33;;;;;;;;;;4976756;28;20480;-55
2022/10/06 06:41:27;;;;;;;6.90;3.67;;;;;;;;;;4959712;28;21025;-56
2022/10/06 06:43:53;;;;;;;8.33;3.37;;;;;;;;;;4972919;28;20514;-55
2022/10/06 06:46:23;;;;;;;5.00;3.00;;;;;;;;;;4961611;28;21009;-56
2022/10/06 06:48:53;;;;;;;8.50;3.20;;;;;;;;;;4970302;28;21032;-55
2022/10/06 06:51:24;;;;;;;9.00;3.67;;;;;;;;;;4973208;28;20422;-56
2022/10/06 06:53:50;;;;;;;6.70;4.30;;;;;;;;;;4979441;28;20977;-56
2022/10/06 06:56:16;;;;;;;5.17;4.13;;;;;;;;;;4976027;28;20445;-56
2022/10/06 06:58:49;;;;;;;4.77;3.53;;;;;;;;;;4976905;28;20437;-56
2022/10/06 07:01:16;;;;;;;6.37;3.63;;;;;;;;;;4966761;28;20529;-56
2022/10/06 07:03:42;;;;;;;7.70;4.00;;;;;;;;;;4971765;28;20477;-56
2022/10/06 07:06:11;;;;;;;4.40;3.57;;;;;;;;;;4979497;28;20463;-56
2022/10/06 07:08:41;;;;;;;5.03;3.20;;;;;;;;;;4981578;28;20480;-55
2022/10/06 07:11:14;;;;;;;8.97;4.17;;;;;;;;;;4976585;28;20441;-56
2022/10/06 07:13:41;;;;;;;6.40;3.83;;;;;;;;;;4977077;28;20437;-56
2022/10/06 07:27:09;;;;;;;3.23;2.17;;;;;;;;;;4986648;28;20487;-56
2022/10/06 07:29:35;;;;;;;2.83;2.27;;;;;;;;;;4971679;28;20480;-56
2022/10/06 07:32:02;;;;;;;6.73;2.00;;;;;;;;;;4983503;28;20516;-57
2022/10/06 07:34:29;;;;;;;4.33;1.90;;;;;;;;;;4993490;28;22692;-58
2022/10/06 07:36:55;;;;;;;4.80;2.40;;;;;;;;;;4984471;28;20426;-57
2022/10/06 07:39:21;;;;;;;4.63;2.37;;;;;;;;;;4978733;28;20527;-57
2022/10/06 07:41:47;;;;;;;4.40;2.37;;;;;;;;;;4989115;28;20483;-55
2022/10/06 07:44:13;;;;;;;7.60;2.00;;;;;;;;;;4962680;28;20457;-54
2022/10/06 07:46:39;;;;;;;2.33;1.83;;;;;;;;;;4981385;28;20528;-56
2022/10/06 07:49:05;;;;;;;3.50;1.70;;;;;;;;;;4971154;28;20501;-56
2022/10/06 07:51:31;;;;;;;3.00;1.90;;;;;;;;;;4979111;28;20954;-55
2022/10/06 07:53:57;;;;;;;3.17;1.60;;;;;;;;;;4951718;28;22592;-55
2022/10/06 07:56:23;;;;;;;2.67;1.90;;;;;;;;;;4982469;28;20178;-55
2022/10/06 07:58:50;;;;;;;3.27;1.70;;;;;;;;;;4977571;28;20444;-55
2022/10/06 08:01:17;;;;;;;2.40;1.33;;;;;;;;;;5014732;28;20516;-56
2022/10/06 08:03:43;;;;;;;9.23;1.90;;;;;;;;;;4958007;28;23000;-56
2022/10/06 08:06:14;;;;;;;2.43;1.40;;;;;;;;;;4981678;28;20516;-57
2022/10/06 08:08:40;;;;;;;2.00;1.40;;;;;;;;;;4976385;28;20480;-55
2022/10/06 08:11:06;;;;;;;2.07;1.40;;;;;;;;;;4978483;28;20453;-56
2022/10/06 08:13:34;;;;;;;3.50;1.80;;;;;;;;;;4976038;28;20702;-56
2022/10/06 08:16:07;;;;;;;2.73;1.40;;;;;;;;;;4977176;28;20444;-55
2022/10/06 08:18:33;;;;;;;3.40;1.67;;;;;;;;;;4961603;28;20536;-55
2022/10/06 08:20:59;;;;;;;4.10;1.43;;;;;;;;;;4978994;28;20968;-55
2022/10/06 08:23:25;;;;;;;3.00;2.17;;;;;;;;;;4962041;28;23536;-55
2022/10/06 08:25:52;;;;;;;7.90;2.00;;;;;;;;;;4984785;28;21079;-57
2022/10/06 08:28:19;;;;;;;3.30;1.47;;;;;;;;;;4941842;28;20444;-56
2022/10/06 08:30:45;;;;;;;2.13;1.20;;;;;;;;;;4983526;28;20551;-56
2022/10/06 08:33:11;;;;;;;2.43;1.30;;;;;;;;;;4983792;28;20994;-56
2022/10/06 08:35:38;;;;;;;2.70;1.70;;;;;;;;;;4983924;28;20806;-55
2022/10/06 08:38:04;;;;;;;4.73;1.50;;;;;;;;;;4951500;28;21354;-55
2022/10/06 08:40:30;;;;;;;5.20;1.53;;;;;;;;;;4962847;28;20450;-53
2022/10/06 08:42:57;;;;;;;3.93;1.30;;;;;;;;;;4979200;28;20437;-56
2022/10/06 08:45:28;;;;;;;3.20;1.60;;;;;;;;;;4977598;28;20448;-55
2022/10/06 08:47:56;;;;;;;3.23;1.20;;;;;;;;;;4982987;28;20441;-58
2022/10/06 08:50:22;;;;;;;3.50;1.43;;;;;;;;;;4982706;28;20469;-56
2022/10/06 08:52:51;;;;;;;2.67;1.17;;;;;;;;;;5015172;28;20442;-56
2022/10/06 08:55:35;;;;;;;3.73;1.47;;;;;;;;;;4956535;28;20492;-55
2022/10/06 08:58:01;;;;;;;3.97;2.03;;;;;;;;;;4970789;28;20550;-58
2022/10/06 09:00:50;;;;;;;2.77;1.10;;;;;;;;;;4978222;28;20498;-55
2022/10/06 09:03:27;;;;;;;5.27;1.30;;;;;;;;;;4965442;28;20447;-56
2022/10/06 09:05:56;;;;;;;6.80;1.80;;;;;;;;;;4962995;28;20448;-56
2022/10/06 09:08:34;;;;;;;4.83;1.40;;;;;;;;;;4976381;28;20951;-55
2022/10/06 09:11:06;;;;;;;4.07;1.50;;;;;;;;;;4954243;28;20793;-55
2022/10/06 09:13:40;;;;;;;5.70;1.53;;;;;;;;;;4980876;28;20441;-56
2022/10/06 09:16:07;;;;;;;6.73;1.33;;;;;;;;;;5009393;28;20511;-55
2022/10/06 09:18:34;;;;;;;3.50;1.60;;;;;;;;;;4982647;28;20444;-56
2022/10/06 09:21:01;;;;;;;3.90;2.13;;;;;;;;;;4960483;28;20445;-56
2022/10/06 09:23:46;;;;;;;2.90;1.50;;;;;;;;;;4976889;28;20539;-57
2022/10/06 09:26:13;;;;;;;2.23;1.40;;;;;;;;;;4958143;28;20447;-55
2022/10/06 09:28:39;;;;;;;3.47;1.50;;;;;;;;;;5015510;28;21190;-55
2022/10/06 09:31:20;;;;;;;3.93;1.50;;;;;;;;;;4976918;28;20491;-56
2022/10/06 09:33:46;;;;;;;5.30;1.23;;;;;;;;;;4980407;28;20433;-57
2022/10/06 09:36:15;;;;;;;3.13;1.17;;;;;;;;;;4987306;28;20801;-56
2022/10/06 09:38:46;;;;;;;3.03;1.40;;;;;;;;;;4962523;28;20272;-56
2022/10/06 09:41:12;;;;;;;2.23;1.40;;;;;;;;;;4975109;28;20538;-56
2022/10/06 09:43:38;;;;;;;11.77;1.40;;;;;;;;;;4954482;28;20457;-56
2022/10/06 09:46:20;;;;;;;2.40;1.50;;;;;;;;;;4979839;28;20495;-56
2022/10/06 09:48:46;;;;;;;2.80;1.60;;;;;;;;;;4964309;28;20762;-56
2022/10/06 09:51:13;;;;;;;3.60;2.60;;;;;;;;;;4977383;28;20433;-56
2022/10/06 09:53:39;;;;;;;2.50;1.50;;;;;;;;;;4959902;28;20433;-56
2022/10/06 09:56:17;;;;;;;2.60;1.40;;;;;;;;;;5003132;28;20436;-57
2022/10/06 09:58:52;;;;;;;5.43;2.00;;;;;;;;;;4968315;28;20421;-57
2022/10/06 10:01:18;;;;;;;2.87;1.60;;;;;;;;;;5011727;28;20471;-57
2022/10/06 10:03:51;;;;;;;3.53;1.13;;;;;;;;;;4980842;28;20440;-56
2022/10/06 10:06:24;;;;;;;5.73;1.37;;;;;;;;;;4984162;28;20448;-56
2022/10/06 10:08:55;;;;;;;4.20;1.13;;;;;;;;;;4968962;28;20465;-56
2022/10/06 10:14:16;;;;;;;4.03;1.50;;;;;;;;;;4948730;28;20533;-57
2022/10/06 10:16:42;;;;;;;2.73;1.00;;;;;;;;;;4978055;28;20469;-56
2022/10/06 10:19:42;;;;;;;5.70;2.70;;;;;;;;;;4960674;28;20606;-56
2022/10/06 10:22:17;;;;;;;3.40;1.60;;;;;;;;;;4977578;28;20782;-56
2022/10/06 10:24:47;;;;;;;2.77;1.80;;;;;;;;;;4987054;28;20476;-56
2022/10/06 10:27:25;;;;;;;3.27;1.10;;;;;;;;;;5008041;28;20847;-56
2022/10/06 10:30:08;;;;;;;13.57;3.00;;;;;;;;;;4949201;28;20469;-56
2022/10/06 10:32:43;;;;;;;3.63;1.33;;;;;;;;;;4983674;28;20445;-56
2022/10/06 10:35:15;;;;;;;3.00;1.53;;;;;;;;;;4960721;28;20441;-56
2022/10/06 10:38:01;;;;;;;5.30;1.50;;;;;;;;;;4983036;28;20437;-56
2022/10/06 10:40:37;;;;;;;3.30;1.03;;;;;;;;;;4981960;28;20440;-57
2022/10/06 10:43:35;;;;;;;3.30;1.30;;;;;;;;;;4978870;28;20440;-57
2022/10/06 10:46:02;;;;;;;7.10;1.10;;;;;;;;;;4935190;28;20469;-56
2022/10/06 10:48:29;;;;;;;2.10;1.30;;;;;;;;;;4980858;28;20486;-56
2022/10/06 10:50:57;;;;;;;5.47;1.70;;;;;;;;;;4971179;28;20198;-57
2022/10/06 10:53:31;;;;;;;2.60;1.40;;;;;;;;;;4980623;28;20433;-56
2022/10/06 10:55:57;;;;;;;2.63;1.30;;;;;;;;;;4961367;28;20498;-57
2022/10/06 10:58:27;;;;;;;3.83;1.70;;;;;;;;;;4982950;28;20448;-56
2022/10/06 11:00:55;;;;;;;2.60;1.30;;;;;;;;;;4974984;28;20449;-56
2022/10/06 11:03:21;;;;;;;3.10;1.10;;;;;;;;;;4986218;28;20444;-56
2022/10/06 11:05:46;;;;;;;5.90;1.83;;;;;;;;;;4974169;28;20501;-55
2022/10/06 11:08:15;;;;;;;4.93;2.30;;;;;;;;;;4982942;28;20965;-56
2022/10/06 11:10:44;;;;;;;1.97;1.10;;;;;;;;;;4976384;28;20477;-56
2022/10/06 11:13:22;;;;;;;1.73;1.10;;;;;;;;;;4988814;28;20430;-56
2022/10/06 11:15:59;;;;;;;3.93;1.20;;;;;;;;;;4947178;28;20474;-56
2022/10/06 11:18:44;;;;;;;4.40;1.47;;;;;;;;;;4987517;28;20536;-57
2022/10/06 11:21:14;;;;;;;2.83;1.50;;;;;;;;;;4972946;28;20444;-56
2022/10/06 11:23:43;;;;;;;3.50;1.50;;;;;;;;;;4993694;28;20432;-56
2022/10/06 11:26:09;;;;;;;2.90;1.73;;;;;;;;;;4979599;28;20440;-57
2022/10/06 11:28:49;;;;;;;12.10;1.60;;;;;;;;;;4963436;28;20576;-57
2022/10/06 11:31:34;;;;;;;3.53;1.20;;;;;;;;;;4985548;28;20965;-57
2022/10/06 11:34:00;;;;;;;4.17;1.87;;;;;;;;;;4969805;28;20448;-56
2022/10/06 11:36:43;;;;;;;2.87;1.30;;;;;;;;;;4984627;28;20857;-56
2022/10/06 11:39:23;;;;;;;6.00;1.23;;;;;;;;;;4978760;28;21144;-57
2022/10/06 11:41:51;;;;;;;6.30;1.93;;;;;;;;;;4987225;28;20475;-56
2022/10/06 11:44:19;;;;;;;3.63;1.63;;;;;;;;;;4934195;28;20472;-58
2022/10/06 11:46:59;;;;;;;2.80;1.07;;;;;;;;;;5012534;28;21007;-56
2022/10/06 11:49:31;;;;;;;6.30;1.40;;;;;;;;;;4951774;28;21242;-54
2022/10/06 11:52:06;;;;;;;8.43;1.77;;;;;;;;;;4974749;28;20447;-55
2022/10/06 11:54:46;;;;;;;3.70;1.23;;;;;;;;;;4963464;28;20703;-55
2022/10/06 11:57:25;;;;;;;5.13;1.20;;;;;;;;;;5010663;28;20468;-57
2022/10/06 11:59:54;;;;;;;7.17;1.77;;;;;;;;;;4964569;28;20455;-56
2022/10/06 12:02:29;;;;;;;3.70;1.23;;;;;;;;;;4981346;28;20533;-57
2022/10/06 12:05:14;;;;;;;3.50;1.40;;;;;;;;;;4957914;28;21116;-54
2022/10/06 12:08:09;;;;;;;3.40;1.10;;;;;;;;;;4980839;28;20473;-56
2022/10/06 12:10:35;;;;;;;6.70;1.40;;;;;;;;;;4963598;28;20534;-58
2022/10/06 12:13:08;;;;;;;6.80;1.47;;;;;;;;;;4986697;28;20449;-56
2022/10/06 12:15:46;;;;;;;3.10;1.50;;;;;;;;;;4937214;28;20535;-57
2022/10/06 12:18:13;;;;;;;3.30;1.33;;;;;;;;;;4950295;28;20491;-55
2022/10/06 12:20:45;;;;;;;5.57;1.27;;;;;;;;;;4941845;28;21468;-57
2022/10/06 12:23:28;;;;;;;3.93;1.50;;;;;;;;;;4943456;28;20480;-56
2022/10/06 12:26:00;;;;;;;2.93;1.40;;;;;;;;;;4913243;28;20448;-56
2022/10/06 12:28:35;;;;;;;5.00;1.50;;;;;;;;;;4933192;28;20448;-56
2022/10/06 12:31:06;;;;;;;4.10;1.53;;;;;;;;;;4943869;28;20456;-54
2022/10/06 12:33:39;;;;;;;5.43;1.30;;;;;;;;;;4963568;28;20673;-56
2022/10/06 12:36:14;;;;;;;2.87;1.40;;;;;;;;;;4942276;28;20500;-56
2022/10/06 12:38:55;;;;;;;7.37;1.83;;;;;;;;;;4933304;28;21454;-54
2022/10/06 12:41:41;;;;;;;4.57;1.57;;;;;;;;;;4940731;28;21261;-56
2022/10/06 12:44:21;;;;;;;7.00;1.60;;;;;;;;;;4950771;28;20518;-56
2022/10/06 12:46:48;;;;;;;5.87;1.40;;;;;;;;;;4947430;28;20449;-56
2022/10/06 12:49:24;;;;;;;6.97;1.67;;;;;;;;;;4947305;28;20476;-56
2022/10/06 12:51:50;;;;;;;3.43;1.17;;;;;;;;;;4945967;28;21056;-56
2022/10/06 12:54:18;;;;;;;5.90;1.40;;;;;;;;;;4951403;28;21191;-56
2022/10/06 12:56:55;;;;;;;3.00;1.90;;;;;;;;;;4952393;28;20449;-56
2022/10/06 12:59:28;;;;;;;7.77;1.17;;;;;;;;;;4982290;28;20533;-56
2022/10/06 13:01:55;;;;;;;3.23;1.23;;;;;;;;;;4959056;28;20493;-56
2022/10/06 13:04:30;;;;;;;6.93;1.83;;;;;;;;;;4973445;28;20530;-56
2022/10/06 13:06:56;;;;;;;7.10;2.03;;;;;;;;;;4957455;28;20480;-56
2022/10/06 13:09:22;;;;;;;3.40;1.60;;;;;;;;;;4981007;28;20515;-55
2022/10/06 13:11:48;;;;;;;2.80;1.53;;;;;;;;;;4953236;28;20540;-55
2022/10/06 13:14:14;;;;;;;9.50;1.77;;;;;;;;;;4976435;28;20441;-55
2022/10/06 13:16:44;;;;;;;5.20;1.70;;;;;;;;;;4976314;28;20448;-58
2022/10/06 13:19:17;;;;;;;5.73;2.00;;;;;;;;;;5010488;28;20455;-58
2022/10/06 13:21:43;;;;;;;3.53;1.40;;;;;;;;;;4955173;28;20449;-56
2022/10/06 13:24:13;;;;;;;6.13;1.37;;;;;;;;;;4984436;28;20532;-55
2022/10/06 13:26:39;;;;;;;6.53;1.60;;;;;;;;;;4952473;28;20463;-56
2022/10/06 13:29:15;;;;;;;6.40;1.33;;;;;;;;;;4982714;28;20480;-58
2022/10/06 13:31:44;;;;;;;5.47;1.33;;;;;;;;;;4986540;28;20556;-55
2022/10/06 13:34:11;;;;;;;3.30;1.53;;;;;;;;;;4977136;28;20698;-58
2022/10/06 13:36:37;;;;;;;2.70;1.60;;;;;;;;;;4961855;28;20503;-57
2022/10/06 13:39:30;;;;;;;6.67;1.30;;;;;;;;;;4984073;28;20445;-56
2022/10/06 13:41:56;;;;;;;6.73;1.53;;;;;;;;;;4958427;28;21001;-56
2022/10/06 13:44:31;;;;;;;9.37;1.80;;;;;;;;;;4983871;28;20484;-60
2022/10/06 13:46:59;;;;;;;4.63;1.70;;;;;;;;;;4981417;28;20437;-58
2022/10/06 13:49:41;;;;;;;3.13;1.43;;;;;;;;;;4975727;28;21315;-57
2022/10/06 13:52:18;;;;;;;5.37;1.37;;;;;;;;;;4960970;28;20438;-55
2022/10/06 13:54:51;;;;;;;9.13;1.90;;;;;;;;;;5012371;28;20436;-57
2022/10/06 13:57:36;;;;;;;2.90;1.50;;;;;;;;;;4948297;28;20445;-55
2022/10/06 14:00:14;;;;;;;9.73;2.50;;;;;;;;;;4979472;28;20449;-55
2022/10/06 14:02:40;;;;;;;3.23;1.87;;;;;;;;;;4973602;28;20563;-56
2022/10/06 14:05:25;;;;;;;5.73;1.20;;;;;;;;;;4978912;28;20448;-57
2022/10/06 14:07:51;;;;;;;5.73;1.50;;;;;;;;;;4954787;28;21010;-55
2022/10/06 14:10:18;;;;;;;4.93;1.63;;;;;;;;;;4974059;28;20575;-55
2022/10/06 14:12:44;;;;;;;2.70;1.33;;;;;;;;;;4955233;28;20550;-55
2022/10/06 14:15:24;;;;;;;3.23;1.60;;;;;;;;;;4983109;28;20441;-56
2022/10/06 14:18:00;;;;;;;5.10;1.70;;;;;;;;;;4974322;28;20901;-55
2022/10/06 14:20:37;;;;;;;2.90;1.30;;;;;;;;;;4978971;28;20516;-54
2022/10/06 14:23:22;;;;;;;4.83;1.63;;;;;;;;;;4982509;28;20453;-54
2022/10/06 14:25:49;;;;;;;6.60;1.53;;;;;;;;;;4980572;28;20432;-58
2022/10/06 14:28:14;;;;;;;3.80;1.57;;;;;;;;;;4981356;28;20445;-55
2022/10/06 14:30:40;;;;;;;4.93;1.43;;;;;;;;;;4979435;28;20477;-55
2022/10/06 14:33:15;;;;;;;3.67;1.33;;;;;;;;;;4970772;28;20198;-56
2022/10/06 14:35:48;;;;;;;5.13;1.70;;;;;;;;;;4956474;28;20504;-57
2022/10/06 14:38:14;;;;;;;4.17;1.60;;;;;;;;;;5011687;28;20443;-56
2022/10/06 14:40:40;;;;;;;10.10;1.97;;;;;;;;;;4984573;28;20456;-57
2022/10/06 14:43:06;;;;;;;4.97;1.40;;;;;;;;;;4941145;28;20434;-57
2022/10/06 14:45:34;;;;;;;4.20;2.03;;;;;;;;;;4976304;28;20437;-56
2022/10/06 14:48:06;;;;;;;7.27;1.70;;;;;;;;;;4971903;28;20458;-58
2022/10/06 14:50:33;;;;;;;9.17;1.80;;;;;;;;;;4964138;28;20483;-57
2022/10/06 14:52:59;;;;;;;8.10;1.70;;;;;;;;;;4955662;28;20473;-58
2022/10/06 14:55:29;;;;;;;5.33;1.43;;;;;;;;;;4978612;28;20543;-58
2022/10/06 14:57:55;;;;;;;5.30;1.50;;;;;;;;;;4980132;28;20476;-56
2022/10/06 15:00:21;;;;;;;4.80;1.43;;;;;;;;;;4981260;28;20436;-57
2022/10/06 15:02:47;;;;;;;7.90;1.80;;;;;;;;;;4957005;28;20440;-56
2022/10/06 15:05:13;;;;;;;3.60;1.63;;;;;;;;;;4977269;28;20484;-57
2022/10/06 15:10:25;;;;;;;9.00;1.70;;;;;;;;;;4952082;28;20563;-56
2022/10/06 15:12:51;;;;;;;4.60;1.43;;;;;;;;;;4932701;28;20447;-56